Time;durP1;ratioP1;P1;durP2;ratioP2;P2;SDS_P1;SDS_P2;PMS_P1;PMS_P2;Temp;Humidity;BMP_temperature;BMP_pressure;BME280_temperature;BME280_humidity;BME280_pressure;Samples;Min_cycle;Max_cycle;Signal;HPM_P1;HPM_P2
2023/05/25 00:00:34;;;;;;;4.63;4.22;;;;;;;15.14;97.02;63565.16;5113229;28;20233;-80
2023/05/25 00:03:02;;;;;;;4.43;4.13;;;;;;;15.12;96.68;63560.50;5123497;27;20234;-80
2023/05/25 00:05:29;;;;;;;4.95;4.57;;;;;;;15.09;96.28;63554.84;5108852;28;20193;-80
2023/05/25 00:07:57;;;;;;;3.92;3.72;;;;;;;15.12;97.09;63560.50;5109022;28;20563;-81
2023/05/25 00:10:24;;;;;;;4.53;4.05;;;;;;;15.11;97.01;63556.91;5107760;28;20266;-81
2023/05/25 00:12:51;;;;;;;4.72;4.32;;;;;;;15.10;97.27;63561.00;5107866;28;20238;-78
2023/05/25 00:15:20;;;;;;;8.63;5.05;;;;;;;15.18;97.23;63571.34;5110510;28;20203;-79
2023/05/25 00:17:47;;;;;;;5.65;5.15;;;;;;;15.14;98.21;63567.19;5116533;28;20215;-79
2023/05/25 00:20:14;;;;;;;5.90;4.80;;;;;;;15.06;98.62;63556.84;5112694;28;20509;-80
2023/05/25 00:22:44;;;;;;;6.13;5.47;;;;;;;15.13;98.88;63559.00;5108308;28;20255;-81
2023/05/25 00:25:12;;;;;;;8.35;5.30;;;;;;;15.08;100.00;63564.06;5110620;28;20188;-78
2023/05/25 00:27:39;;;;;;;5.40;5.00;;;;;;;15.05;100.00;63553.22;5120678;28;20290;-80
2023/05/25 00:30:07;;;;;;;5.57;5.13;;;;;;;15.02;100.00;63552.69;5130542;28;20386;-80
2023/05/25 00:32:36;;;;;;;7.22;5.40;;;;;;;15.01;100.00;63551.66;5132471;28;20222;-79
2023/05/25 00:35:02;;;;;;;7.80;6.72;;;;;;;15.01;100.00;63552.16;5126938;28;20199;-79
2023/05/25 00:37:29;;;;;;;6.40;5.80;;;;;;;14.97;100.00;63545.44;5126630;28;20231;-80
2023/05/25 00:39:57;;;;;;;6.05;5.60;;;;;;;14.91;100.00;63541.78;5128158;28;20349;-80
2023/05/25 00:42:26;;;;;;;7.60;6.85;;;;;;;14.91;100.00;63536.13;5128365;28;20531;-82
2023/05/25 00:44:54;;;;;;;8.40;7.03;;;;;;;14.90;100.00;63540.75;5117247;28;20222;-80
2023/05/25 00:47:21;;;;;;;8.98;7.10;;;;;;;14.84;100.00;63528.88;5108200;28;20233;-80
2023/05/25 00:49:51;;;;;;;6.22;5.63;;;;;;;14.81;100.00;63525.72;5113025;28;20266;-79
2023/05/25 00:52:18;;;;;;;7.75;7.05;;;;;;;14.80;100.00;63527.25;5108611;28;20227;-80
2023/05/25 00:54:51;;;;;;;9.80;6.57;;;;;;;14.71;100.00;63523.56;5109775;28;20195;-81
2023/05/25 00:57:23;;;;;;;5.18;4.82;;;;;;;14.59;100.00;63502.88;5117679;28;20238;-81
2023/05/25 00:59:54;;;;;;;5.90;5.32;;;;;;;14.62;100.00;63506.00;5108366;28;20196;-80
2023/05/25 01:02:23;;;;;;;7.45;5.60;;;;;;;14.44;100.00;63487.84;5111045;28;20539;-79
2023/05/25 01:04:54;;;;;;;6.22;5.72;;;;;;;14.42;100.00;63488.31;5108240;28;20204;-78
2023/05/25 01:07:24;;;;;;;6.50;5.90;;;;;;;14.43;100.00;63494.47;5115815;28;20219;-80
2023/05/25 01:09:57;;;;;;;10.27;6.15;;;;;;;14.36;100.00;63487.19;5120389;27;20207;-80
2023/05/25 01:12:27;;;;;;;6.95;5.60;;;;;;;14.21;100.00;63469.03;5108158;28;20222;-80
2023/05/25 01:14:55;;;;;;;7.13;5.70;;;;;;;14.25;100.00;63470.13;5126372;28;20207;-80
2023/05/25 01:17:23;;;;;;;5.88;5.30;;;;;;;14.19;100.00;63466.97;5113115;28;20219;-78
2023/05/25 01:19:51;;;;;;;6.43;5.68;;;;;;;14.17;100.00;63459.75;5111813;28;20196;-80
2023/05/25 01:22:28;;;;;;;8.95;5.85;;;;;;;14.03;100.00;63449.84;5115568;28;20258;-78
2023/05/25 01:25:01;;;;;;;8.90;5.95;;;;;;;13.97;100.00;63446.69;5127306;28;20195;-81
2023/05/25 01:27:37;;;;;;;8.63;6.38;;;;;;;13.92;100.00;63433.81;5129785;28;20274;-80
2023/05/25 01:30:10;;;;;;;6.95;6.22;;;;;;;13.96;100.00;63442.56;5125513;28;20226;-80
2023/05/25 01:32:38;;;;;;;6.93;6.22;;;;;;;13.96;100.00;63442.56;5110389;28;20211;-80
2023/05/25 01:35:08;;;;;;;6.00;5.45;;;;;;;14.03;100.00;63450.34;5108458;28;20221;-81
2023/05/25 01:37:38;;;;;;;5.55;5.10;;;;;;;13.99;100.00;63441.09;5111692;28;20211;-82
2023/05/25 01:40:06;;;;;;;6.60;4.95;;;;;;;13.99;100.00;63448.78;5110236;28;20248;-80
2023/05/25 01:42:33;;;;;;;8.07;6.18;;;;;;;14.02;100.00;63451.34;5114008;28;20242;-81
2023/05/25 01:45:00;;;;;;;5.70;5.30;;;;;;;13.91;100.00;63435.84;5108137;28;20314;-79
2023/05/25 01:47:32;;;;;;;5.75;5.25;;;;;;;14.02;100.00;63443.69;5107007;28;20387;-79
2023/05/25 01:50:06;;;;;;;5.63;5.15;;;;;;;13.98;100.00;63445.16;5110389;28;20203;-80
2023/05/25 01:52:41;;;;;;;5.47;5.07;;;;;;;14.05;100.00;63449.88;5112432;28;20219;-79
2023/05/25 01:55:12;;;;;;;5.43;4.93;;;;;;;14.03;100.00;63449.84;5112835;28;20188;-80
2023/05/25 01:57:43;;;;;;;7.45;5.28;;;;;;;13.99;100.00;63448.25;5129047;28;20215;-80
2023/05/25 02:00:13;;;;;;;6.63;4.60;;;;;;;13.93;100.00;63445.09;5112490;28;20199;-81
2023/05/25 02:02:41;;;;;;;6.57;4.68;;;;;;;13.89;100.00;63430.72;5111353;28;20243;-79
2023/05/25 02:05:10;;;;;;;5.13;4.80;;;;;;;13.89;100.00;63433.78;5114189;28;20205;-80
2023/05/25 02:07:40;;;;;;;6.15;4.50;;;;;;;13.94;100.00;63441.03;5124504;28;20618;-81
2023/05/25 02:10:08;;;;;;;5.60;4.72;;;;;;;13.92;100.00;63433.81;5132827;28;20211;-78
2023/05/25 02:12:35;;;;;;;8.80;4.32;;;;;;;13.91;100.00;63437.88;5124105;28;20234;-79
2023/05/25 02:15:02;;;;;;;4.65;4.00;;;;;;;13.82;100.00;63428.56;5121250;28;20207;-80
2023/05/25 02:17:29;;;;;;;4.80;4.38;;;;;;;13.76;100.00;63417.22;5130209;28;20264;-80
2023/05/25 02:19:57;;;;;;;4.32;4.03;;;;;;;13.69;100.00;63415.06;5132762;28;20565;-81
2023/05/25 02:22:24;;;;;;;4.93;4.53;;;;;;;13.74;100.00;63418.22;5124642;28;20232;-79
2023/05/25 02:24:53;;;;;;;4.95;4.65;;;;;;;13.74;100.00;63417.69;5129175;28;20210;-79
2023/05/25 02:27:20;;;;;;;7.80;5.20;;;;;;;13.73;100.00;63416.66;5122822;28;20242;-80
2023/05/25 02:29:47;;;;;;;5.68;4.82;;;;;;;13.73;100.00;63419.22;5127476;28;20379;-78
2023/05/25 02:32:14;;;;;;;6.25;4.35;;;;;;;13.70;100.00;63414.06;5115337;28;20216;-80
2023/05/25 02:34:42;;;;;;;6.75;4.68;;;;;;;13.88;100.00;63435.31;5111702;28;20220;-79
2023/05/25 02:37:08;;;;;;;5.57;5.18;;;;;;;13.89;100.00;63433.78;5112680;28;20256;-80
2023/05/25 02:39:35;;;;;;;4.60;4.28;;;;;;;13.93;100.00;63434.34;5111188;28;20359;-81
2023/05/25 02:42:05;;;;;;;4.90;4.50;;;;;;;13.96;100.00;63440.00;5116540;28;20256;-80
2023/05/25 02:44:32;;;;;;;5.50;5.00;;;;;;;13.94;100.00;63435.91;5129187;27;20221;-80
2023/05/25 02:46:59;;;;;;;5.53;5.03;;;;;;;13.84;100.00;63430.63;5131767;28;20215;-79
2023/05/25 02:49:26;;;;;;;7.00;4.78;;;;;;;13.99;100.00;63443.13;5128571;28;20219;-78
2023/05/25 02:51:53;;;;;;;5.60;5.20;;;;;;;14.00;100.00;63449.28;5112856;28;20216;-79
2023/05/25 02:54:20;;;;;;;7.13;5.57;;;;;;;14.03;100.00;63444.72;5128906;28;20210;-79
2023/05/25 02:56:47;;;;;;;6.53;5.90;;;;;;;14.05;100.00;63449.88;5132918;27;20215;-80
2023/05/25 02:59:16;;;;;;;9.55;6.18;;;;;;;14.02;100.00;63446.75;5119431;28;20202;-80
2023/05/25 03:01:43;;;;;;;5.90;5.50;;;;;;;14.06;100.00;63456.03;5112946;28;20279;-79
2023/05/25 03:04:10;;;;;;;8.95;5.85;;;;;;;14.00;100.00;63444.16;5131593;28;20235;-80
2023/05/25 03:06:37;;;;;;;6.20;5.70;;;;;;;14.05;100.00;63452.44;5129476;28;20235;-80
2023/05/25 03:09:05;;;;;;;9.73;5.28;;;;;;;14.05;100.00;63446.81;5110357;28;20200;-79
2023/05/25 03:11:32;;;;;;;5.18;4.78;;;;;;;14.00;100.00;63449.28;5118035;28;20223;-81
2023/05/25 03:13:59;;;;;;;6.07;5.57;;;;;;;14.04;100.00;63451.41;5130961;28;20227;-80
2023/05/25 03:16:28;;;;;;;13.27;5.90;;;;;;;13.98;100.00;63440.03;5116696;28;20436;-79
2023/05/25 03:18:55;;;;;;;6.90;5.95;;;;;;;14.04;100.00;63448.31;5111775;28;20271;-81
2023/05/25 03:21:22;;;;;;;5.40;4.97;;;;;;;14.14;100.00;63456.13;5109604;28;20234;-79
2023/05/25 03:23:50;;;;;;;8.35;5.32;;;;;;;14.17;100.00;63462.31;5130215;28;20420;-80
2023/05/25 03:26:17;;;;;;;5.22;4.88;;;;;;;14.20;100.00;63462.91;5123552;28;20228;-81
2023/05/25 03:28:44;;;;;;;4.65;4.35;;;;;;;14.21;100.00;63466.50;5110993;28;20207;-80
2023/05/25 03:31:12;;;;;;;5.30;4.78;;;;;;;14.22;100.00;63472.13;5126459;28;20256;-80
2023/05/25 03:33:41;;;;;;;5.45;5.03;;;;;;;14.26;100.00;63473.72;5125453;28;20404;-79
2023/05/25 03:36:08;;;;;;;4.35;4.05;;;;;;;14.24;100.00;63472.16;5111754;28;20219;-80
2023/05/25 03:38:36;;;;;;;5.65;5.13;;;;;;;14.27;100.00;63477.34;5132765;28;20203;-79
2023/05/25 03:41:04;;;;;;;7.88;4.82;;;;;;;14.28;100.00;63481.47;5115605;28;20217;-80
2023/05/25 03:43:32;;;;;;;5.85;5.25;;;;;;;14.35;100.00;63488.72;5129416;28;20227;-79
2023/05/25 03:45:59;;;;;;;5.90;5.30;;;;;;;14.32;100.00;63474.84;5125629;28;20196;-79
2023/05/25 03:48:26;;;;;;;5.80;5.28;;;;;;;14.49;100.00;63495.06;5120258;28;20217;-80
2023/05/25 03:50:54;;;;;;;5.07;4.68;;;;;;;14.55;100.00;63504.38;5116524;28;20223;-81
2023/05/25 03:53:21;;;;;;;5.43;5.03;;;;;;;14.54;100.00;63500.25;5128136;28;20199;-80
2023/05/25 03:55:50;;;;;;;6.15;5.45;;;;;;;14.58;100.00;63507.47;5127726;28;20195;-80
2023/05/25 03:58:17;;;;;;;6.55;5.38;;;;;;;14.86;100.00;63530.94;5121195;28;20195;-79
2023/05/25 04:00:45;;;;;;;5.75;5.13;;;;;;;14.85;100.00;63537.59;5122188;28;20210;-79
2023/05/25 04:03:12;;;;;;;5.85;5.25;;;;;;;14.94;100.00;63542.31;5118904;28;20222;-81
2023/05/25 04:05:40;;;;;;;5.85;5.40;;;;;;;15.15;100.00;63568.78;5122828;27;20199;-80
2023/05/25 04:08:09;;;;;;;5.40;5.00;;;;;;;15.32;100.00;63583.34;5129343;28;20215;-81
2023/05/25 04:10:36;;;;;;;6.93;5.03;;;;;;;15.41;100.00;63590.16;5124094;27;20198;-81
2023/05/25 04:13:03;;;;;;;5.82;5.40;;;;;;;15.60;100.00;63615.03;5117208;28;20215;-80
2023/05/25 04:15:33;;;;;;;5.22;4.82;;;;;;;15.75;100.00;63625.50;5108017;28;20508;-80
2023/05/25 04:18:01;;;;;;;5.30;4.90;;;;;;;15.91;100.00;63642.13;5110319;28;20261;-79
2023/05/25 04:20:29;;;;;;;5.15;4.75;;;;;;;15.99;100.00;63650.44;5115325;28;20225;-81
2023/05/25 04:22:56;;;;;;;5.72;5.03;;;;;;;16.17;100.00;63669.69;5117082;28;20226;-81
2023/05/25 04:25:25;;;;;;;11.00;5.97;;;;;;;16.38;100.00;63693.59;5124015;28;20206;-80
2023/05/25 04:27:55;;;;;;;7.53;6.78;;;;;;;16.54;100.00;63707.16;5126022;28;20211;-80
2023/05/25 04:30:23;;;;;;;7.45;6.50;;;;;;;16.81;100.00;63740.91;5115065;28;20205;-80
2023/05/25 04:32:50;;;;;;;11.07;6.63;;;;;;;17.00;100.00;63752.97;5121034;28;20207;-80
2023/05/25 04:35:19;;;;;;;7.45;6.75;;;;;;;17.09;100.00;63764.91;5118825;28;20224;-79
2023/05/25 04:37:47;;;;;;;8.07;6.40;;;;;;;16.97;100.00;63754.47;5125804;28;20226;-80
2023/05/25 04:40:14;;;;;;;7.35;6.57;;;;;;;16.87;100.00;63744.59;5118193;28;20199;-80
2023/05/25 04:42:43;;;;;;;7.38;6.35;;;;;;;16.76;100.00;63735.72;5119131;28;20263;-79
2023/05/25 04:45:11;;;;;;;8.77;7.85;;;;;;;16.84;100.00;63738.88;5120973;28;20198;-79
2023/05/25 04:47:39;;;;;;;9.88;7.18;;;;;;;16.77;99.57;63729.06;5117617;28;20215;-80
2023/05/25 04:50:08;;;;;;;9.07;7.35;;;;;;;16.77;100.00;63736.75;5110947;28;20213;-80
2023/05/25 04:52:35;;;;;;;9.05;7.28;;;;;;;16.74;100.00;63725.41;5118187;28;20215;-80
2023/05/25 04:55:03;;;;;;;10.70;7.32;;;;;;;16.75;100.00;63731.59;5117955;28;20213;-80
2023/05/25 04:57:30;;;;;;;12.75;6.80;;;;;;;17.04;100.00;63754.56;5131309;28;20273;-79
2023/05/25 04:59:59;;;;;;;9.82;7.43;;;;;;;17.18;99.66;63771.72;5129444;28;20254;-79
2023/05/25 05:02:26;;;;;;;12.50;7.85;;;;;;;17.34;99.04;63793.50;5108696;28;20509;-80
2023/05/25 05:04:54;;;;;;;11.95;7.28;;;;;;;17.37;98.61;63793.00;5110700;28;20243;-81
2023/05/25 05:07:21;;;;;;;8.40;7.45;;;;;;;17.47;99.99;63800.88;5124459;28;20240;-82
2023/05/25 05:09:48;;;;;;;9.43;7.28;;;;;;;17.48;98.29;63807.56;5120949;28;20258;-80
2023/05/25 05:12:16;;;;;;;9.52;7.63;;;;;;;17.53;97.56;63810.22;5110977;28;20223;-81
2023/05/25 05:14:43;;;;;;;10.68;7.68;;;;;;;17.55;96.50;63811.78;5130794;28;20241;-81
2023/05/25 05:17:12;;;;;;;11.77;7.80;;;;;;;17.51;100.00;63813.28;5129959;28;20213;-80
2023/05/25 05:19:38;;;;;;;14.02;8.02;;;;;;;17.70;100.00;63833.06;5124594;28;20225;-81
2023/05/25 05:22:07;;;;;;;11.15;7.90;;;;;;;17.82;100.00;63842.47;5129971;28;20229;-80
2023/05/25 05:24:34;;;;;;;12.00;8.30;;;;;;;18.01;98.96;63860.22;5114130;28;20546;-79
2023/05/25 05:27:02;;;;;;;24.25;8.45;;;;;;;17.91;95.66;63852.34;5117403;28;20214;-83
2023/05/25 05:29:29;;;;;;;11.35;7.40;;;;;;;17.93;94.93;63853.94;5130738;28;20414;-82
2023/05/25 05:31:56;;;;;;;12.70;9.25;;;;;;;18.01;94.84;63860.22;5126443;28;20237;-81
2023/05/25 05:34:25;;;;;;;14.60;8.38;;;;;;;18.01;95.08;63862.28;5108718;28;20255;-80
2023/05/25 05:36:52;;;;;;;14.38;8.70;;;;;;;17.89;93.88;63849.75;5117581;28;20241;-80
2023/05/25 05:39:19;;;;;;;13.27;8.68;;;;;;;18.00;94.17;63866.91;5131151;28;20199;-82
2023/05/25 05:41:46;;;;;;;12.48;8.45;;;;;;;17.98;94.34;63859.66;5111892;28;20287;-81
2023/05/25 05:44:13;;;;;;;12.00;8.63;;;;;;;17.83;98.52;63846.63;5110242;28;20541;-80
2023/05/25 05:46:41;;;;;;;13.30;9.52;;;;;;;17.64;98.24;63818.56;5109259;28;20288;-80
2023/05/25 05:49:08;;;;;;;13.25;8.73;;;;;;;17.76;98.99;63833.63;5115322;28;20195;-80
2023/05/25 05:51:38;;;;;;;14.15;9.88;;;;;;;17.54;99.50;63811.25;5111329;28;20219;-82
2023/05/25 05:54:06;;;;;;;13.05;9.95;;;;;;;17.41;100.00;63799.75;5110634;28;20205;-81
2023/05/25 05:56:33;;;;;;;16.60;10.15;;;;;;;17.53;98.73;63807.13;5122306;28;20231;-79
2023/05/25 05:59:00;;;;;;;14.48;9.70;;;;;;;17.51;97.77;63807.63;5125831;28;20194;-80
2023/05/25 06:01:27;;;;;;;15.43;10.77;;;;;;;17.77;96.60;63834.69;5118842;28;20223;-81
2023/05/25 06:03:55;;;;;;;15.35;11.05;;;;;;;17.83;94.28;63840.94;5110663;28;20231;-81
2023/05/25 06:06:22;;;;;;;22.08;10.73;;;;;;;18.08;93.72;63870.09;5114409;28;20297;-80
2023/05/25 06:08:50;;;;;;;20.85;12.52;;;;;;;17.89;94.14;63852.34;5108404;28;20237;-80
2023/05/25 06:11:17;;;;;;;15.88;12.52;;;;;;;17.62;96.76;63817.00;5125036;28;20225;-80
2023/05/25 06:13:45;;;;;;;13.95;12.38;;;;;;;17.85;96.61;63845.59;5115859;28;20239;-79
2023/05/25 06:16:12;;;;;;;11.65;10.45;;;;;;;18.11;95.24;63870.09;5109903;28;20455;-81
2023/05/25 06:18:39;;;;;;;16.35;11.55;;;;;;;18.40;93.33;63906.03;5130544;28;20195;-79
2023/05/25 06:21:06;;;;;;;16.25;10.93;;;;;;;18.54;91.19;63914.94;5130663;28;20201;-82
2023/05/25 06:23:33;;;;;;;15.48;11.00;;;;;;;18.53;90.82;63913.91;5129071;28;20222;-81
2023/05/25 06:26:05;;;;;;;15.63;11.13;;;;;;;18.66;93.00;63927.44;5124690;28;20232;-81
2023/05/25 06:28:33;;;;;;;12.95;10.65;;;;;;;18.76;89.66;63937.34;5111095;28;20210;-80
2023/05/25 06:31:01;;;;;;;14.93;10.38;;;;;;;18.85;87.86;63947.25;5122401;28;20226;-81
2023/05/25 06:33:27;;;;;;;13.93;9.50;;;;;;;19.02;86.85;63964.97;5110153;28;20260;-81
2023/05/25 06:35:59;;;;;;;13.77;10.20;;;;;;;18.91;81.85;63952.97;5110299;28;20196;-79
2023/05/25 06:38:26;;;;;;;14.82;8.63;;;;;;;18.89;82.77;63948.31;5110204;28;20188;-81
2023/05/25 06:40:53;;;;;;;17.10;9.18;;;;;;;18.74;84.50;63938.34;5111826;28;20195;-80
2023/05/25 06:43:22;;;;;;;18.27;10.68;;;;;;;18.97;84.42;63959.22;5133073;28;20195;-79
2023/05/25 06:45:49;;;;;;;14.27;10.85;;;;;;;19.01;86.34;63961.34;5136022;28;20258;-79
2023/05/25 06:48:17;;;;;;;12.07;9.95;;;;;;;19.05;82.70;63970.16;5131984;28;20199;-79
2023/05/25 06:50:44;;;;;;;15.75;11.23;;;;;;;19.01;83.58;63966.50;5131142;28;20390;-78
2023/05/25 06:53:12;;;;;;;14.48;11.35;;;;;;;19.00;83.35;63965.44;5123598;28;20200;-81
2023/05/25 06:55:39;;;;;;;15.68;9.57;;;;;;;19.43;77.76;64009.81;5113714;28;20192;-82
2023/05/25 06:58:06;;;;;;;19.98;12.32;;;;;;;19.43;78.26;64007.22;5125679;28;20217;-80
2023/05/25 07:00:34;;;;;;;17.17;10.35;;;;;;;19.51;78.76;64016.09;5131311;28;20230;-79
2023/05/25 07:03:01;;;;;;;11.63;10.43;;;;;;;19.43;79.78;64009.81;5130287;28;20217;-81
2023/05/25 07:05:28;;;;;;;12.80;11.15;;;;;;;19.44;77.36;64010.84;5116156;28;20283;-80
2023/05/25 07:07:55;;;;;;;13.20;10.88;;;;;;;19.54;78.16;64021.25;5118060;28;20226;-80
2023/05/25 07:10:23;;;;;;;11.68;9.30;;;;;;;19.44;77.24;64005.66;5116929;28;20199;-80
2023/05/25 07:12:50;;;;;;;8.38;7.68;;;;;;;19.61;78.32;64028.56;5120437;28;20250;-78
2023/05/25 07:15:17;;;;;;;9.10;8.27;;;;;;;19.72;76.06;64037.47;5108174;28;20503;-78
2023/05/25 07:17:46;;;;;;;12.25;8.10;;;;;;;20.19;75.85;64091.16;5124579;27;20213;-76
2023/05/25 07:20:13;;;;;;;11.35;9.07;;;;;;;20.07;74.59;64073.97;5137213;27;20213;-78
2023/05/25 07:22:41;;;;;;;10.65;8.52;;;;;;;20.13;74.80;64082.81;5122900;28;20234;-77
2023/05/25 07:25:08;;;;;;;10.05;8.88;;;;;;;19.81;76.76;64044.25;5113682;28;20268;-78
2023/05/25 07:27:36;;;;;;;11.68;9.13;;;;;;;19.71;79.53;64036.41;5126641;28;20214;-77
2023/05/25 07:30:02;;;;;;;8.95;8.07;;;;;;;19.85;80.72;64051.00;5121142;28;20432;-78
2023/05/25 07:32:30;;;;;;;9.27;8.45;;;;;;;20.45;78.88;64111.06;5109040;28;20243;-78
2023/05/25 07:34:58;;;;;;;9.68;8.40;;;;;;;20.98;75.41;64168.47;5112884;28;20200;-78
2023/05/25 07:37:25;;;;;;;9.45;7.85;;;;;;;20.80;76.00;64146.53;5110472;28;20231;-77
2023/05/25 07:39:52;;;;;;;8.80;7.97;;;;;;;20.76;75.99;64140.28;5116686;28;20195;-78
2023/05/25 07:42:20;;;;;;;7.18;6.55;;;;;;;20.52;77.45;64126.13;5128017;28;20226;-81
2023/05/25 07:44:47;;;;;;;7.10;6.28;;;;;;;20.96;74.83;64171.53;5131528;28;20294;-79
2023/05/25 07:47:14;;;;;;;7.88;7.07;;;;;;;20.66;75.54;64135.56;5128744;28;20240;-78
2023/05/25 07:49:42;;;;;;;9.20;6.78;;;;;;;19.96;77.40;64059.38;5123697;28;20190;-78
2023/05/25 07:52:11;;;;;;;6.50;6.00;;;;;;;19.50;81.04;64020.19;5115572;28;20233;-80
2023/05/25 07:54:39;;;;;;;7.28;6.57;;;;;;;19.37;82.58;64004.06;5118635;28;20208;-78
2023/05/25 07:57:06;;;;;;;7.75;6.95;;;;;;;19.19;86.56;63982.16;5115399;28;20215;-78
2023/05/25 07:59:34;;;;;;;9.13;6.28;;;;;;;19.18;86.59;63984.22;5113575;28;20206;-78
2023/05/25 08:02:01;;;;;;;6.60;6.10;;;;;;;19.27;83.17;63993.63;5119127;28;20241;-78
2023/05/25 08:04:28;;;;;;;7.88;5.88;;;;;;;19.20;85.01;63985.78;5118108;28;20283;-77
2023/05/25 08:06:56;;;;;;;10.77;6.15;;;;;;;19.09;85.99;63974.31;5114756;28;20220;-78
2023/05/25 08:09:24;;;;;;;7.90;6.30;;;;;;;18.80;88.56;63942.03;5117680;28;20199;-79
2023/05/25 08:11:51;;;;;;;5.95;5.43;;;;;;;18.67;89.98;63933.13;5116093;28;20218;-79
2023/05/25 08:14:19;;;;;;;11.02;8.48;;;;;;;18.70;91.90;63933.66;5122406;27;20222;-80
2023/05/25 08:16:46;;;;;;;12.25;10.40;;;;;;;18.73;92.91;63934.72;5116501;27;20465;-79
2023/05/25 08:19:15;;;;;;;17.42;12.23;;;;;;;18.71;93.62;63932.13;5122281;28;20224;-79
2023/05/25 08:21:42;;;;;;;18.92;12.85;;;;;;;18.82;92.23;63946.16;5112296;28;20233;-80
2023/05/25 08:24:08;;;;;;;17.25;12.68;;;;;;;18.70;92.16;63931.59;5118668;28;20235;-79
2023/05/25 08:26:37;;;;;;;20.70;12.13;;;;;;;17.25;100.00;63778.47;5121483;28;20259;-75
2023/05/25 08:29:04;;;;;;;24.70;10.27;;;;;;;15.51;100.00;63600.56;5109504;28;20230;-76
2023/05/25 08:31:31;;;;;;;15.07;11.60;;;;;;;14.38;100.00;63486.19;5109167;28;20220;-75
2023/05/25 08:33:59;;;;;;;14.80;11.18;;;;;;;14.30;100.00;63475.84;5111168;28;20214;-74
2023/05/25 08:36:26;;;;;;;12.82;11.35;;;;;;;14.29;100.00;63476.88;5119478;28;20581;-74
2023/05/25 08:38:54;;;;;;;12.55;10.50;;;;;;;14.25;100.00;63468.09;5115850;28;20202;-75
2023/05/25 08:41:21;;;;;;;22.48;13.30;;;;;;;14.20;100.00;63464.94;5113346;28;20265;-75
2023/05/25 08:43:50;;;;;;;20.45;14.60;;;;;;;14.35;100.00;63477.97;5111058;28;20545;-73
2023/05/25 08:46:30;;;;;;;19.52;13.73;;;;;;;14.41;100.00;63486.75;5108104;28;20272;-74
2023/05/25 08:49:05;;;;;;;18.20;13.85;;;;;;;14.48;100.00;63494.53;5119493;27;20511;-73
2023/05/25 08:51:36;;;;;;;34.78;16.13;;;;;;;14.61;100.00;63507.53;5110820;28;20265;-74
2023/05/25 08:54:08;;;;;;;19.70;14.43;;;;;;;14.67;100.00;63514.28;5109061;28;20196;-74
2023/05/25 08:56:41;;;;;;;20.17;14.63;;;;;;;14.70;100.00;63514.31;5112221;28;20535;-74
2023/05/25 08:59:16;;;;;;;19.45;16.35;;;;;;;14.82;100.00;63532.41;5117773;28;20202;-74
2023/05/25 09:01:46;;;;;;;15.63;14.02;;;;;;;14.86;100.00;63536.06;5104058;28;20421;-75
2023/05/25 09:04:13;;;;;;;25.10;16.42;;;;;;;14.95;100.00;63542.84;5106664;28;20248;-74
2023/05/25 09:06:41;;;;;;;17.42;14.95;;;;;;;15.05;100.00;63558.34;5110283;28;20214;-76
2023/05/25 09:09:09;;;;;;;20.45;15.60;;;;;;;15.10;100.00;63560.47;5107454;28;20202;-74
2023/05/25 09:11:36;;;;;;;20.85;14.88;;;;;;;15.11;100.00;63558.94;5108435;28;20216;-74
2023/05/25 09:14:03;;;;;;;19.52;14.45;;;;;;;15.19;100.00;63565.22;5113414;28;20221;-73
2023/05/25 09:16:32;;;;;;;20.35;15.65;;;;;;;15.23;100.00;63563.72;5115865;28;20254;-75
2023/05/25 09:18:59;;;;;;;23.45;14.40;;;;;;;15.37;100.00;63585.97;5101953;28;20200;-74
2023/05/25 09:21:26;;;;;;;19.73;12.48;;;;;;;15.40;100.00;63594.25;5111637;28;20230;-74
2023/05/25 09:23:54;;;;;;;12.98;11.60;;;;;;;15.42;100.00;63591.72;5112455;28;20241;-73
2023/05/25 09:26:21;;;;;;;19.85;10.57;;;;;;;15.49;100.00;63599.00;5108979;28;20531;-75
2023/05/25 09:28:48;;;;;;;14.48;10.40;;;;;;;15.54;100.00;63603.66;5108928;28;20191;-75
2023/05/25 09:31:16;;;;;;;18.90;11.02;;;;;;;15.52;100.00;63599.53;5119843;28;20215;-75
2023/05/25 09:33:46;;;;;;;12.35;9.93;;;;;;;15.62;100.00;63609.41;5114348;28;20195;-74
2023/05/25 09:36:15;;;;;;;18.45;11.35;;;;;;;15.80;100.00;63631.22;5110824;28;20339;-76
2023/05/25 09:38:42;;;;;;;21.02;11.65;;;;;;;16.07;100.00;63661.34;5109226;28;20528;-75
2023/05/25 09:41:09;;;;;;;11.50;9.48;;;;;;;16.25;100.00;63674.41;5107632;28;20233;-74
2023/05/25 09:43:36;;;;;;;11.52;9.73;;;;;;;16.44;100.00;63699.31;5112300;28;20252;-76
2023/05/25 09:46:03;;;;;;;12.40;7.90;;;;;;;16.28;100.00;63683.19;5118515;28;20223;-75
2023/05/25 09:48:31;;;;;;;11.73;7.57;;;;;;;16.24;100.00;63676.44;5114232;28;20199;-77
2023/05/25 09:51:00;;;;;;;8.15;7.35;;;;;;;16.32;100.00;63684.25;5116164;28;20233;-76
2023/05/25 09:53:27;;;;;;;7.85;7.07;;;;;;;16.49;100.00;63705.06;5110102;28;20245;-77
2023/05/25 09:55:56;;;;;;;6.72;6.13;;;;;;;16.72;100.00;63725.91;5106362;28;20207;-76
2023/05/25 09:58:23;;;;;;;6.35;5.75;;;;;;;16.44;100.00;63699.84;5112608;28;20195;-76
2023/05/25 10:00:54;;;;;;;7.32;6.72;;;;;;;16.46;100.00;63701.38;5117459;28;20228;-76
2023/05/25 10:03:21;;;;;;;7.65;6.80;;;;;;;16.34;100.00;63683.78;5109537;28;20211;-76
2023/05/25 10:05:48;;;;;;;6.55;6.05;;;;;;;16.17;100.00;63674.31;5114645;28;20227;-76
2023/05/25 10:08:20;;;;;;;7.30;6.60;;;;;;;16.47;100.00;63702.97;5109284;28;20201;-75
2023/05/25 10:10:50;;;;;;;7.47;6.75;;;;;;;17.01;100.00;63754.03;5111288;28;20216;-76
2023/05/25 10:13:21;;;;;;;9.05;6.50;;;;;;;17.09;100.00;63764.38;5115108;28;20379;-76
2023/05/25 10:15:52;;;;;;;7.50;6.25;;;;;;;17.17;100.00;63773.25;5115289;28;20222;-75
2023/05/25 10:18:24;;;;;;;10.88;6.35;;;;;;;17.57;100.00;63811.81;5117206;27;20658;-75
2023/05/25 10:20:57;;;;;;;6.88;5.97;;;;;;;18.12;100.00;63868.59;5121529;27;20207;-76
2023/05/25 10:23:30;;;;;;;5.65;5.20;;;;;;;18.64;100.00;63930.50;5114079;28;20266;-76
2023/05/25 10:26:00;;;;;;;5.90;5.00;;;;;;;18.94;100.00;63954.03;5114484;27;20219;-75
2023/05/25 10:28:30;;;;;;;6.13;4.70;;;;;;;19.24;100.00;63989.97;5112553;28;20203;-78
2023/05/25 10:30:58;;;;;;;4.88;4.47;;;;;;;19.33;100.00;63997.31;5111372;28;20764;-76
2023/05/25 10:33:26;;;;;;;4.93;4.43;;;;;;;19.66;100.00;64031.19;5107964;28;20263;-78
2023/05/25 10:35:54;;;;;;;4.60;4.30;;;;;;;19.96;100.00;64059.91;5108489;28;20240;-76
2023/05/25 10:38:22;;;;;;;4.68;4.38;;;;;;;19.96;100.00;64067.13;5107190;28;20191;-76
2023/05/25 10:40:51;;;;;;;5.35;4.85;;;;;;;19.41;100.00;64002.53;5107495;28;20240;-76
2023/05/25 10:43:19;;;;;;;6.95;6.35;;;;;;;18.84;100.00;63945.69;5121859;28;20218;-78
2023/05/25 10:45:47;;;;;;;8.80;7.03;;;;;;;18.44;100.00;63907.09;5119863;28;20226;-78
2023/05/25 10:48:15;;;;;;;9.85;7.72;;;;;;;18.71;100.00;63934.69;5114956;28;20197;-75
2023/05/25 10:50:42;;;;;;;9.55;7.70;;;;;;;18.84;100.00;63948.25;5116998;27;20325;-79
2023/05/25 10:53:12;;;;;;;7.97;6.93;;;;;;;18.79;100.00;63935.31;5112934;28;20241;-77
2023/05/25 10:55:49;;;;;;;11.43;7.85;;;;;;;18.81;100.00;63942.56;5114316;28;20199;-76
2023/05/25 10:58:19;;;;;;;9.32;7.47;;;;;;;18.64;100.00;63930.00;5116722;28;20263;-75
2023/05/25 11:00:57;;;;;;;7.78;7.18;;;;;;;19.20;100.00;63980.63;5120776;27;20195;-76
2023/05/25 11:03:49;;;;;;;6.72;6.07;;;;;;;19.59;100.00;64021.31;5107536;28;20214;-77
2023/05/25 11:06:16;;;;;;;6.15;5.65;;;;;;;19.81;100.00;64048.91;5110875;28;20231;-76
2023/05/25 11:08:51;;;;;;;7.45;5.90;;;;;;;19.69;100.00;64031.72;5109751;28;20206;-75
2023/05/25 11:11:19;;;;;;;7.65;6.18;;;;;;;19.72;100.00;64040.03;5119937;28;20221;-77
2023/05/25 11:13:49;;;;;;;8.30;5.53;;;;;;;19.83;100.00;64048.41;5111882;28;20221;-76
2023/05/25 11:16:23;;;;;;;6.05;5.30;;;;;;;19.91;100.00;64057.28;5117387;28;20554;-76
2023/05/25 11:18:52;;;;;;;8.02;5.93;;;;;;;19.32;100.00;63998.31;5112456;28;20191;-76
2023/05/25 11:21:39;;;;;;;7.18;6.45;;;;;;;18.99;100.00;63961.31;5116858;27;20304;-77
2023/05/25 11:24:12;;;;;;;13.93;6.78;;;;;;;18.67;100.00;63933.13;5111586;28;20234;-77
2023/05/25 11:26:54;;;;;;;8.57;7.03;;;;;;;18.84;100.00;63940.50;5120602;28;20231;-77
2023/05/25 11:29:24;;;;;;;7.05;6.45;;;;;;;18.69;100.00;63933.13;5115775;27;20211;-76